Meath Environmental Platform

Observations for Trim Market St

Time AQI Temp °C Hum % Pres Pa CO μg/m³ H₂S μg/m³ NO μg/m³ NO₂ μg/m³ O₃ μg/m³ SO₂ μg/m³ PM1 μg/m³ PM2.5 μg/m³ PM10 μg/m³
Wednesday 26 August 2026
07:45 2 17.1 84 2,147,483,647 0.25 0 1.58 18.02 35.99 0 2.85 4.72 9.16
07:44 2 17.1 84 2,147,483,647 0.25 0 1.73 19.34 31.65 0 4.99 7.05 10.79
07:43 2 17.1 84 2,147,483,647 0.24 0 1.61 18.03 30.95 0 6.41 6.58 10.79
07:42 2 17.1 84 2,147,483,647 0.24 0 1.42 16.68 33.62 0 4.28 5.65 9.7
07:41 2 17.1 84 2,147,483,647 0.24 0 1.17 13.87 43.1 0 3.56 6.12 11.33
07:23 2 17.1 84 2,147,483,647 0.25 0 1.43 15.13 32.99 0 4.99 6.11 10.24
07:22 2 17.1 84 2,147,483,647 0.25 0 1.43 14.24 30.55 0 5.7 6.11 9.7
07:21 2 17.1 84 2,147,483,647 0.25 0 1.44 15.13 35.03 0 5.7 7.04 12.41
07:20 2 17.1 84 2,147,483,647 0.24 0 1.34 14.49 33.32 0 4.99 6.11 10.78
07:18 2 17.1 84 2,147,483,647 0.27 0 1.32 15.15 28.44 0 5.7 6.57 11.86
07:16 2 17.1 84 2,147,483,647 0.25 0 1.45 14.51 35.95 0 4.28 5.63 9.7
07:15 2 17.1 84 2,147,483,647 0.25 0 1.45 13.7 37.71 0 4.99 6.1 10.24
07:14 2 17.1 84 2,147,483,647 0.25 0 1.52 13.6 34.81 0 4.99 6.1 11.86
07:13 2 17.1 84 2,147,483,647 0.24 0 1.6 14.27 35.37 0 4.28 4.7 8.61
07:11 2 17.1 84 2,147,483,647 0.25 0 1.35 13.71 33.83 0 3.56 5.16 9.15
07:08 2 17.1 84 2,147,483,647 0.25 0 1.51 14.27 35.2 0 4.99 6.09 9.69
07:07 2 17.1 85 2,147,483,647 0.25 0 1.51 14.41 32.79 0 3.56 5.62 9.69
07:05 2 17.1 85 2,147,483,647 0.24 0 1.49 13.93 35.83 0 7.13 8.88 13.47
06:57 2 17 85 2,147,483,647 0.25 0 1.44 14.71 37.06 0 4.99 5.61 10.23
06:53 2 17 85 2,147,483,647 0.25 0 1.57 16.37 37.06 0 5.7 7.47 11.84